Time;durP1;ratioP1;P1;durP2;ratioP2;P2;SDS_P1;SDS_P2;PMS_P1;PMS_P2;Temp;Humidity;BMP_temperature;BMP_pressure;BME280_temperature;BME280_humidity;BME280_pressure;Samples;Min_cycle;Max_cycle;Signal;HPM_P1;HPM_P2
2022/03/02 00:02:09;;;;;;;41.65;24.23;;;;;;;;;;5055547;28;20049;-62
2022/03/02 00:04:35;;;;;;;46.55;25.23;;;;;;;;;;5059766;28;20037;-62
2022/03/02 00:07:00;;;;;;;42.22;24.08;;;;;;;;;;5058614;28;20037;-62
2022/03/02 00:09:26;;;;;;;42.22;24.25;;;;;;;;;;5044351;28;20040;-62
2022/03/02 00:11:53;;;;;;;44.97;26.42;;;;;;;;;;5069976;28;20537;-61
2022/03/02 00:14:19;;;;;;;42.38;25.63;;;;;;;;;;5057697;28;20069;-62
2022/03/02 00:16:45;;;;;;;43.10;25.40;;;;;;;;;;5061810;28;20064;-62
2022/03/02 00:19:11;;;;;;;46.33;25.92;;;;;;;;;;5065307;28;20055;-62
2022/03/02 00:21:37;;;;;;;45.95;26.70;;;;;;;;;;5061733;28;20041;-62
2022/03/02 00:24:04;;;;;;;47.17;26.50;;;;;;;;;;5056891;28;20422;-62
2022/03/02 00:26:31;;;;;;;44.92;25.23;;;;;;;;;;5054990;28;20056;-62
2022/03/02 00:28:57;;;;;;;44.00;25.98;;;;;;;;;;5064030;28;20051;-62
2022/03/02 00:31:23;;;;;;;41.33;26.17;;;;;;;;;;5073080;28;20045;-62
2022/03/02 00:33:49;;;;;;;45.33;26.65;;;;;;;;;;5064064;28;20322;-62
2022/03/02 00:36:15;;;;;;;45.45;26.13;;;;;;;;;;5060731;28;20068;-62
2022/03/02 00:38:41;;;;;;;44.10;26.27;;;;;;;;;;5062102;28;20040;-62
2022/03/02 00:41:07;;;;;;;44.88;26.35;;;;;;;;;;5062093;28;20044;-62
2022/03/02 00:43:33;;;;;;;47.08;27.52;;;;;;;;;;5060539;28;20043;-62
2022/03/02 00:45:59;;;;;;;47.47;27.48;;;;;;;;;;5038585;28;20048;-62
2022/03/02 00:48:25;;;;;;;44.85;26.13;;;;;;;;;;5059763;28;20044;-62
2022/03/02 00:50:51;;;;;;;45.45;25.95;;;;;;;;;;5067654;28;20029;-62
2022/03/02 00:53:17;;;;;;;46.45;26.67;;;;;;;;;;5054476;28;20048;-62
2022/03/02 00:55:43;;;;;;;45.72;26.88;;;;;;;;;;5040272;28;20103;-62
2022/03/02 00:58:09;;;;;;;45.92;25.67;;;;;;;;;;5065200;28;20475;-62
2022/03/02 01:00:35;;;;;;;46.00;27.02;;;;;;;;;;5056684;28;20037;-62
2022/03/02 01:03:01;;;;;;;45.92;27.33;;;;;;;;;;5074067;28;20047;-62
2022/03/02 01:05:27;;;;;;;46.15;26.27;;;;;;;;;;5067470;28;20513;-62
2022/03/02 01:07:53;;;;;;;44.65;25.08;;;;;;;;;;5067629;28;20123;-62
2022/03/02 01:10:19;;;;;;;48.88;26.40;;;;;;;;;;5055410;28;20079;-62
2022/03/02 01:12:46;;;;;;;48.10;26.20;;;;;;;;;;5054073;28;20075;-62
2022/03/02 01:15:13;;;;;;;48.67;25.63;;;;;;;;;;5053167;28;20458;-62
2022/03/02 01:17:39;;;;;;;48.53;26.25;;;;;;;;;;5031112;28;20036;-62
2022/03/02 01:20:06;;;;;;;48.08;26.20;;;;;;;;;;5032411;28;20076;-62
2022/03/02 01:22:33;;;;;;;45.20;25.17;;;;;;;;;;5072703;28;20097;-62
2022/03/02 01:24:58;;;;;;;44.20;24.75;;;;;;;;;;5061874;28;20084;-62
2022/03/02 01:27:24;;;;;;;47.00;26.25;;;;;;;;;;5069920;28;20075;-62
2022/03/02 01:29:51;;;;;;;46.65;25.83;;;;;;;;;;5054967;28;20044;-62
2022/03/02 01:32:17;;;;;;;45.53;25.42;;;;;;;;;;5068024;28;20047;-61
2022/03/02 01:34:43;;;;;;;45.85;26.42;;;;;;;;;;5042694;28;20040;-62
2022/03/02 01:37:09;;;;;;;46.67;25.20;;;;;;;;;;5055385;28;20051;-62
2022/03/02 01:39:35;;;;;;;46.83;26.58;;;;;;;;;;5055652;28;20045;-62
2022/03/02 01:42:01;;;;;;;44.83;24.90;;;;;;;;;;5035148;28;20126;-61
2022/03/02 01:44:27;;;;;;;48.10;25.65;;;;;;;;;;5058539;28;20086;-62
2022/03/02 01:46:53;;;;;;;48.70;26.55;;;;;;;;;;5072957;28;20507;-62
2022/03/02 01:49:19;;;;;;;47.40;26.58;;;;;;;;;;5055631;28;20164;-61
2022/03/02 01:51:45;;;;;;;48.03;26.33;;;;;;;;;;5052250;28;20041;-62
2022/03/02 01:54:12;;;;;;;44.58;25.88;;;;;;;;;;5065731;28;20133;-62
2022/03/02 01:56:38;;;;;;;46.15;26.80;;;;;;;;;;5038698;28;20028;-62
2022/03/02 01:59:04;;;;;;;50.28;25.40;;;;;;;;;;5066139;28;20410;-61
2022/03/02 02:01:31;;;;;;;46.55;26.08;;;;;;;;;;5068021;28;20066;-62
2022/03/02 02:03:57;;;;;;;45.53;25.45;;;;;;;;;;5057492;28;20115;-61
2022/03/02 02:06:23;;;;;;;47.40;26.45;;;;;;;;;;5034405;28;20037;-61
2022/03/02 02:08:50;;;;;;;47.70;26.15;;;;;;;;;;5059872;28;20028;-62
2022/03/02 02:11:16;;;;;;;51.28;27.90;;;;;;;;;;5064871;28;20111;-61
2022/03/02 02:13:42;;;;;;;47.80;26.40;;;;;;;;;;5052036;28;20112;-62
2022/03/02 02:16:08;;;;;;;51.10;27.08;;;;;;;;;;5033962;28;20119;-61
2022/03/02 02:18:34;;;;;;;48.70;27.10;;;;;;;;;;5042591;28;20037;-62
2022/03/02 02:21:04;;;;;;;49.83;26.63;;;;;;;;;;5062783;28;20048;-61
2022/03/02 02:23:30;;;;;;;47.65;27.38;;;;;;;;;;5055869;28;20461;-62
2022/03/02 02:25:56;;;;;;;49.10;26.60;;;;;;;;;;5054171;28;20136;-61
2022/03/02 02:28:24;;;;;;;52.45;27.80;;;;;;;;;;5058960;28;20538;-62
2022/03/02 02:30:53;;;;;;;44.30;26.77;;;;;;;;;;5067531;28;20045;-62
2022/03/02 02:33:19;;;;;;;47.83;26.13;;;;;;;;;;5052142;28;20048;-62
2022/03/02 02:35:45;;;;;;;46.85;26.95;;;;;;;;;;5051859;28;20037;-62
2022/03/02 02:38:11;;;;;;;50.15;27.25;;;;;;;;;;5062137;28;20068;-62
2022/03/02 02:40:37;;;;;;;48.33;26.30;;;;;;;;;;5068560;28;20076;-62
2022/03/02 02:43:05;;;;;;;47.67;25.50;;;;;;;;;;5072232;28;20037;-62
2022/03/02 02:45:31;;;;;;;48.80;27.30;;;;;;;;;;5056576;28;20033;-62
2022/03/02 02:47:58;;;;;;;46.30;27.30;;;;;;;;;;5041368;28;20044;-61
2022/03/02 02:50:28;;;;;;;47.83;26.13;;;;;;;;;;5051737;28;20055;-62
2022/03/02 02:52:55;;;;;;;52.20;27.10;;;;;;;;;;5042248;28;20037;-62
2022/03/02 02:55:24;;;;;;;49.35;26.30;;;;;;;;;;5057168;28;20037;-62
2022/03/02 02:57:50;;;;;;;46.75;25.45;;;;;;;;;;5069044;28;20055;-61
2022/03/02 03:00:18;;;;;;;47.13;26.23;;;;;;;;;;5050047;28;20053;-62
2022/03/02 03:02:45;;;;;;;50.67;26.70;;;;;;;;;;5052239;28;20044;-62
2022/03/02 03:05:12;;;;;;;51.60;27.38;;;;;;;;;;5060249;28;20036;-62
2022/03/02 03:07:38;;;;;;;50.75;27.08;;;;;;;;;;5032342;28;20095;-61
2022/03/02 03:10:05;;;;;;;51.45;27.23;;;;;;;;;;5070785;28;20102;-62
2022/03/02 03:12:31;;;;;;;51.05;26.98;;;;;;;;;;5054933;28;20036;-62
2022/03/02 03:14:57;;;;;;;50.90;26.95;;;;;;;;;;5034893;28;20055;-62
2022/03/02 03:17:23;;;;;;;47.78;27.30;;;;;;;;;;5053230;28;20298;-61
2022/03/02 03:19:49;;;;;;;49.60;26.98;;;;;;;;;;5058114;28;20163;-62
2022/03/02 03:22:15;;;;;;;52.50;27.75;;;;;;;;;;5063621;28;20040;-62
2022/03/02 03:24:41;;;;;;;54.38;28.42;;;;;;;;;;5058652;28;20039;-62
2022/03/02 03:27:07;;;;;;;52.08;26.17;;;;;;;;;;5050988;28;20040;-62
2022/03/02 03:29:33;;;;;;;48.33;27.13;;;;;;;;;;5048449;28;20029;-62
2022/03/02 03:31:59;;;;;;;49.05;27.17;;;;;;;;;;5057239;28;20413;-62
2022/03/02 03:34:25;;;;;;;49.95;26.63;;;;;;;;;;5047791;28;20029;-62
2022/03/02 03:36:52;;;;;;;53.00;28.15;;;;;;;;;;5040893;28;20376;-62
2022/03/02 03:39:18;;;;;;;48.15;26.80;;;;;;;;;;5050934;28;20091;-61
2022/03/02 03:41:44;;;;;;;48.38;27.70;;;;;;;;;;5051004;28;20040;-62
2022/03/02 03:44:10;;;;;;;46.53;26.52;;;;;;;;;;5049750;28;20576;-62
2022/03/02 03:46:36;;;;;;;47.80;26.67;;;;;;;;;;5048031;28;20713;-62
2022/03/02 03:49:02;;;;;;;48.35;27.17;;;;;;;;;;5042673;28;20131;-62
2022/03/02 03:51:28;;;;;;;49.95;28.00;;;;;;;;;;5050956;28;20428;-62
2022/03/02 03:53:54;;;;;;;51.00;27.70;;;;;;;;;;5032708;28;20041;-62
2022/03/02 03:56:20;;;;;;;51.65;27.65;;;;;;;;;;5048522;28;20041;-62
2022/03/02 03:58:46;;;;;;;58.92;26.63;;;;;;;;;;5048813;28;20039;-62
2022/03/02 04:01:12;;;;;;;50.55;28.92;;;;;;;;;;5050448;28;20076;-62
2022/03/02 04:03:38;;;;;;;48.75;26.17;;;;;;;;;;5048950;28;20044;-62
2022/03/02 04:06:04;;;;;;;53.92;27.90;;;;;;;;;;5048865;28;20506;-62
2022/03/02 04:08:30;;;;;;;55.80;27.48;;;;;;;;;;5050428;28;20502;-62
2022/03/02 04:10:56;;;;;;;51.03;26.67;;;;;;;;;;5050321;28;20037;-62
2022/03/02 04:13:22;;;;;;;49.28;26.02;;;;;;;;;;5050854;28;20037;-62
2022/03/02 04:15:50;;;;;;;52.28;27.60;;;;;;;;;;5050680;28;20069;-61
2022/03/02 04:18:16;;;;;;;49.88;27.15;;;;;;;;;;5050128;28;20033;-61
2022/03/02 04:20:42;;;;;;;47.88;27.10;;;;;;;;;;5050970;28;20498;-62
2022/03/02 04:23:11;;;;;;;49.83;27.55;;;;;;;;;;5050474;28;20037;-62
2022/03/02 04:25:37;;;;;;;52.63;27.70;;;;;;;;;;5049733;28;20053;-61
2022/03/02 04:28:04;;;;;;;49.58;28.02;;;;;;;;;;5033614;28;20041;-62
2022/03/02 04:30:30;;;;;;;49.53;26.70;;;;;;;;;;5055150;28;20051;-61
2022/03/02 04:32:57;;;;;;;49.15;27.40;;;;;;;;;;5051043;28;20043;-61
2022/03/02 04:35:23;;;;;;;53.63;28.70;;;;;;;;;;5054731;28;20040;-62
2022/03/02 04:37:49;;;;;;;51.35;27.40;;;;;;;;;;5054954;28;20029;-62
2022/03/02 04:40:15;;;;;;;53.70;28.58;;;;;;;;;;5055840;28;20048;-61
2022/03/02 04:42:41;;;;;;;51.35;27.88;;;;;;;;;;5060921;28;20037;-61
2022/03/02 04:45:07;;;;;;;48.35;26.60;;;;;;;;;;5058421;28;20457;-62
2022/03/02 04:47:33;;;;;;;56.33;27.38;;;;;;;;;;5053615;28;20398;-62
2022/03/02 04:49:59;;;;;;;49.38;27.17;;;;;;;;;;5057708;28;20045;-62
2022/03/02 04:52:25;;;;;;;56.40;28.88;;;;;;;;;;5060617;28;20079;-61
2022/03/02 04:55:06;;;;;;;53.58;29.48;;;;;;;;;;5059888;28;20051;-62
2022/03/02 04:57:32;;;;;;;;;;;;;;;;;;5063843;28;20092;-61
2022/03/02 04:59:58;;;;;;;51.53;27.85;;;;;;;;;;5064248;28;19971;-62
2022/03/02 05:02:24;;;;;;;55.72;27.65;;;;;;;;;;5052440;28;20135;-62
2022/03/02 05:04:50;;;;;;;50.30;27.80;;;;;;;;;;5055675;28;20577;-62
2022/03/02 05:07:17;;;;;;;54.50;27.25;;;;;;;;;;5084956;22;20043;-62
2022/03/02 05:09:44;;;;;;;50.67;28.67;;;;;;;;;;5068137;28;20375;-62
2022/03/02 05:12:10;;;;;;;53.83;28.58;;;;;;;;;;5073305;28;20041;-62
2022/03/02 05:14:36;;;;;;;52.90;28.60;;;;;;;;;;5072472;28;20040;-62
2022/03/02 05:17:02;;;;;;;53.00;28.00;;;;;;;;;;5054086;28;20041;-62
2022/03/02 05:19:28;;;;;;;53.33;28.35;;;;;;;;;;5058861;28;20033;-62
2022/03/02 05:21:55;;;;;;;54.22;27.63;;;;;;;;;;5063639;28;20072;-62
2022/03/02 05:24:21;;;;;;;52.65;27.88;;;;;;;;;;5068483;28;20055;-62
2022/03/02 05:26:47;;;;;;;53.22;27.60;;;;;;;;;;5052892;28;20037;-62
2022/03/02 05:29:12;;;;;;;54.05;28.30;;;;;;;;;;5051989;28;20041;-63
2022/03/02 05:31:38;;;;;;;51.10;27.55;;;;;;;;;;5065128;28;20125;-62
2022/03/02 05:34:04;;;;;;;48.10;27.67;;;;;;;;;;5054443;28;20513;-63
2022/03/02 05:36:30;;;;;;;54.53;29.02;;;;;;;;;;5053086;28;20518;-63
2022/03/02 05:38:56;;;;;;;51.58;28.08;;;;;;;;;;5053689;28;20128;-61
2022/03/02 05:41:22;;;;;;;54.03;29.95;;;;;;;;;;5047807;28;20045;-61
2022/03/02 05:43:49;;;;;;;55.22;29.50;;;;;;;;;;5054587;28;20091;-61
2022/03/02 05:46:15;;;;;;;52.33;27.55;;;;;;;;;;5050806;28;20037;-61
2022/03/02 05:48:41;;;;;;;51.65;28.20;;;;;;;;;;5051626;28;20037;-61
2022/03/02 05:51:07;;;;;;;55.85;28.88;;;;;;;;;;5050807;28;20041;-61
2022/03/02 05:53:34;;;;;;;49.33;27.58;;;;;;;;;;5069169;28;20090;-61
2022/03/02 05:55:59;;;;;;;53.75;29.02;;;;;;;;;;5051409;28;20049;-61
2022/03/02 05:58:25;;;;;;;51.03;29.08;;;;;;;;;;5053225;28;20413;-61
2022/03/02 06:00:52;;;;;;;56.83;28.92;;;;;;;;;;5051825;28;20044;-62
2022/03/02 06:03:19;;;;;;;53.38;28.95;;;;;;;;;;5061508;28;20040;-63
2022/03/02 06:05:45;;;;;;;53.88;27.73;;;;;;;;;;5051496;28;20041;-62
2022/03/02 06:08:11;;;;;;;51.67;28.35;;;;;;;;;;5044743;28;20040;-63
2022/03/02 06:10:37;;;;;;;53.15;28.88;;;;;;;;;;5049228;28;20115;-63
2022/03/02 06:13:03;;;;;;;57.15;29.35;;;;;;;;;;5055125;28;20040;-63
2022/03/02 06:15:30;;;;;;;53.28;28.13;;;;;;;;;;5051482;28;20044;-62
2022/03/02 06:18:00;;;;;;;51.95;28.05;;;;;;;;;;5046311;28;20068;-63
2022/03/02 06:20:27;;;;;;;52.28;28.23;;;;;;;;;;5050696;28;20555;-62
2022/03/02 06:22:53;;;;;;;48.67;27.33;;;;;;;;;;5061646;28;20156;-62
2022/03/02 06:25:19;;;;;;;51.95;29.55;;;;;;;;;;5042747;28;20064;-63
2022/03/02 06:27:45;;;;;;;55.50;28.48;;;;;;;;;;5050640;28;20487;-63
2022/03/02 06:30:12;;;;;;;51.50;28.17;;;;;;;;;;5050317;28;20039;-63
2022/03/02 06:32:38;;;;;;;52.08;27.35;;;;;;;;;;5046406;28;20052;-62
2022/03/02 06:35:04;;;;;;;56.97;28.70;;;;;;;;;;5050642;28;20388;-62
2022/03/02 06:37:33;;;;;;;51.45;29.45;;;;;;;;;;5051060;28;20068;-63
2022/03/02 06:40:00;;;;;;;51.25;27.38;;;;;;;;;;5051406;28;20049;-62
2022/03/02 06:42:33;;;;;;;52.28;27.95;;;;;;;;;;5049771;28;20478;-63
2022/03/02 06:45:06;;;;;;;52.85;28.52;;;;;;;;;;5051157;28;20083;-59
2022/03/02 06:47:37;;;;;;;52.97;29.52;;;;;;;;;;5050162;28;20029;-60
2022/03/02 06:50:07;;;;;;;52.60;28.15;;;;;;;;;;5042647;28;20079;-60
2022/03/02 06:52:35;;;;;;;47.87;26.47;;;;;;;;;;5048625;28;20072;-60
2022/03/02 06:55:03;;;;;;;49.90;26.80;;;;;;;;;;5042529;28;20341;-60
2022/03/02 06:57:30;;;;;;;49.67;26.45;;;;;;;;;;5049786;28;20067;-60
2022/03/02 06:59:59;;;;;;;51.78;26.67;;;;;;;;;;5050830;28;20041;-60
2022/03/02 07:02:35;;;;;;;51.75;28.05;;;;;;;;;;5051057;28;20166;-60
2022/03/02 07:05:02;;;;;;;50.50;27.52;;;;;;;;;;5046811;28;20044;-60
2022/03/02 07:07:30;;;;;;;51.70;27.60;;;;;;;;;;5050347;28;20091;-60
2022/03/02 07:09:56;;;;;;;55.05;27.80;;;;;;;;;;5056653;28;20052;-60
2022/03/02 07:12:24;;;;;;;50.20;27.08;;;;;;;;;;5056167;28;20120;-60
2022/03/02 07:14:51;;;;;;;51.75;26.65;;;;;;;;;;5052976;28;20128;-60
2022/03/02 07:17:17;;;;;;;47.40;26.42;;;;;;;;;;5050309;28;20037;-59
2022/03/02 07:19:43;;;;;;;48.35;26.58;;;;;;;;;;5049679;28;20138;-59
2022/03/02 07:22:12;;;;;;;56.40;27.80;;;;;;;;;;5051941;28;20032;-59
2022/03/02 07:24:46;;;;;;;58.20;28.75;;;;;;;;;;5048867;28;20505;-60
2022/03/02 07:27:15;;;;;;;49.33;26.95;;;;;;;;;;5043923;28;20630;-60
2022/03/02 07:29:42;;;;;;;51.45;26.27;;;;;;;;;;5050110;28;20141;-60
2022/03/02 07:32:08;;;;;;;55.05;28.00;;;;;;;;;;5050035;28;20119;-60
2022/03/02 07:34:40;;;;;;;52.53;28.30;;;;;;;;;;5057156;28;20041;-60
2022/03/02 07:37:09;;;;;;;47.88;26.02;;;;;;;;;;5057596;28;20171;-60
2022/03/02 07:39:35;;;;;;;51.33;25.73;;;;;;;;;;5049720;28;20086;-59
2022/03/02 07:42:02;;;;;;;49.10;25.88;;;;;;;;;;5060115;28;20037;-59
2022/03/02 07:44:28;;;;;;;44.20;25.20;;;;;;;;;;5050092;28;20033;-59
2022/03/02 07:46:57;;;;;;;50.65;27.20;;;;;;;;;;5042538;28;20045;-59
2022/03/02 07:49:42;;;;;;;48.20;24.85;;;;;;;;;;5045992;28;20124;-59
2022/03/02 07:52:08;;;;;;;52.65;25.65;;;;;;;;;;5039857;28;20045;-60
2022/03/02 07:54:38;;;;;;;49.72;25.10;;;;;;;;;;5045715;28;20037;-60
2022/03/02 07:57:06;;;;;;;49.00;25.67;;;;;;;;;;5046391;28;20043;-60
2022/03/02 07:59:36;;;;;;;52.75;26.75;;;;;;;;;;5046103;28;20037;-60
2022/03/02 08:02:03;;;;;;;46.25;25.73;;;;;;;;;;5044888;28;20045;-59
2022/03/02 08:04:29;;;;;;;46.53;26.55;;;;;;;;;;5046358;28;20033;-60
2022/03/02 08:06:55;;;;;;;48.88;26.60;;;;;;;;;;5046025;28;20033;-60
2022/03/02 08:09:21;;;;;;;45.45;24.85;;;;;;;;;;5046843;28;20036;-60
2022/03/02 08:11:47;;;;;;;47.15;24.50;;;;;;;;;;5048898;28;20045;-60
2022/03/02 08:14:13;;;;;;;47.90;25.42;;;;;;;;;;5050338;28;20045;-60
2022/03/02 08:16:41;;;;;;;48.58;24.10;;;;;;;;;;5049503;28;20098;-60
2022/03/02 08:19:07;;;;;;;44.20;24.20;;;;;;;;;;5048460;28;20050;-60
2022/03/02 08:21:35;;;;;;;45.90;23.45;;;;;;;;;;5051461;28;20462;-60
2022/03/02 08:24:06;;;;;;;44.63;25.00;;;;;;;;;;5045659;28;20049;-60
2022/03/02 08:26:33;;;;;;;45.13;26.33;;;;;;;;;;5049383;28;20036;-59
2022/03/02 08:29:02;;;;;;;45.00;23.83;;;;;;;;;;5046788;28;20102;-59
2022/03/02 08:31:29;;;;;;;43.88;24.15;;;;;;;;;;5049308;28;20079;-59
2022/03/02 08:33:55;;;;;;;43.80;23.42;;;;;;;;;;5049055;28;20048;-59
2022/03/02 08:36:23;;;;;;;42.60;22.73;;;;;;;;;;5050169;28;20376;-60
2022/03/02 08:38:50;;;;;;;43.05;24.08;;;;;;;;;;5048185;28;20473;-59
2022/03/02 08:41:17;;;;;;;40.88;23.83;;;;;;;;;;5048590;28;20048;-60
2022/03/02 08:43:44;;;;;;;41.40;24.13;;;;;;;;;;5048618;28;20376;-60
2022/03/02 08:46:10;;;;;;;42.20;25.38;;;;;;;;;;5048584;28;20041;-60
2022/03/02 08:48:36;;;;;;;44.60;24.13;;;;;;;;;;5049056;28;20547;-60
2022/03/02 08:51:02;;;;;;;47.60;24.30;;;;;;;;;;5047338;28;20520;-60
2022/03/02 08:53:28;;;;;;;41.88;23.90;;;;;;;;;;5049091;28;20063;-60
2022/03/02 08:55:54;;;;;;;41.55;22.77;;;;;;;;;;5048283;28;20045;-60
2022/03/02 08:58:20;;;;;;;40.33;22.38;;;;;;;;;;5048789;28;20486;-60
2022/03/02 09:00:46;;;;;;;39.78;22.77;;;;;;;;;;5050456;28;20048;-60
2022/03/02 09:03:16;;;;;;;38.47;22.42;;;;;;;;;;5048036;28;20060;-60
2022/03/02 09:05:42;;;;;;;37.58;20.92;;;;;;;;;;5044602;28;20037;-59
2022/03/02 09:08:11;;;;;;;37.63;20.92;;;;;;;;;;5048657;28;20053;-60
2022/03/02 09:10:37;;;;;;;35.20;20.63;;;;;;;;;;5042436;28;20033;-60
2022/03/02 09:13:03;;;;;;;37.13;20.50;;;;;;;;;;5049218;28;20055;-59
2022/03/02 09:15:29;;;;;;;36.13;20.38;;;;;;;;;;5049108;28;20138;-59
2022/03/02 09:17:55;;;;;;;37.10;20.42;;;;;;;;;;5054769;28;20033;-60
2022/03/02 09:20:23;;;;;;;36.75;19.55;;;;;;;;;;5050937;28;20052;-60
2022/03/02 09:22:50;;;;;;;38.05;19.58;;;;;;;;;;5050501;28;20040;-60
2022/03/02 09:25:16;;;;;;;37.58;19.88;;;;;;;;;;5049599;28;20083;-60
2022/03/02 09:27:42;;;;;;;36.75;20.05;;;;;;;;;;5051353;28;20068;-60
2022/03/02 09:30:09;;;;;;;40.08;20.08;;;;;;;;;;5052380;28;20123;-60
2022/03/02 09:32:37;;;;;;;34.92;19.27;;;;;;;;;;5052288;28;20045;-60
2022/03/02 09:35:03;;;;;;;38.97;19.88;;;;;;;;;;5052108;28;20406;-60
2022/03/02 09:37:34;;;;;;;35.97;20.05;;;;;;;;;;5048146;28;20171;-60
2022/03/02 09:40:00;;;;;;;36.50;20.15;;;;;;;;;;5051267;28;20076;-60
2022/03/02 09:42:30;;;;;;;35.05;19.55;;;;;;;;;;5052679;28;20120;-60
2022/03/02 09:44:59;;;;;;;34.90;19.05;;;;;;;;;;5052156;28;20041;-61
2022/03/02 09:47:27;;;;;;;32.78;18.27;;;;;;;;;;5052414;28;20071;-60
2022/03/02 09:49:55;;;;;;;32.40;19.13;;;;;;;;;;5051937;28;20483;-60
2022/03/02 09:52:21;;;;;;;30.27;17.52;;;;;;;;;;5051911;28;20128;-60
2022/03/02 09:54:51;;;;;;;31.40;17.80;;;;;;;;;;5050708;28;20041;-61
2022/03/02 09:57:18;;;;;;;28.63;17.17;;;;;;;;;;5052175;28;20090;-61
2022/03/02 09:59:48;;;;;;;32.10;17.38;;;;;;;;;;5052827;28;20045;-61
2022/03/02 10:02:20;;;;;;;29.77;18.83;;;;;;;;;;5072581;28;20043;-61
2022/03/02 10:04:51;;;;;;;28.58;17.40;;;;;;;;;;5052519;28;20158;-61
2022/03/02 10:07:28;;;;;;;32.73;17.83;;;;;;;;;;5051522;28;20499;-61
2022/03/02 10:10:03;;;;;;;28.25;16.60;;;;;;;;;;5048881;28;20506;-61
2022/03/02 10:12:31;;;;;;;28.85;16.38;;;;;;;;;;5052681;28;20040;-60
2022/03/02 10:14:57;;;;;;;30.15;17.15;;;;;;;;;;5052687;28;20041;-60
2022/03/02 10:17:25;;;;;;;27.17;16.45;;;;;;;;;;5050670;28;20047;-60
2022/03/02 10:19:53;;;;;;;28.08;16.58;;;;;;;;;;5052260;28;20136;-60
2022/03/02 10:22:19;;;;;;;31.27;16.52;;;;;;;;;;5052206;28;20037;-60
2022/03/02 10:24:48;;;;;;;28.92;17.35;;;;;;;;;;5051986;28;20170;-60
2022/03/02 10:27:41;;;;;;;30.35;17.48;;;;;;;;;;5051674;28;20037;-61
2022/03/02 10:30:08;;;;;;;27.50;16.10;;;;;;;;;;5035064;28;20759;-61
2022/03/02 10:32:35;;;;;;;27.38;16.90;;;;;;;;;;5051437;28;20522;-60
2022/03/02 10:35:06;;;;;;;28.33;15.88;;;;;;;;;;5056065;28;20463;-61
2022/03/02 10:37:59;;;;;;;29.15;17.38;;;;;;;;;;5051466;28;20398;-61
2022/03/02 10:40:25;;;;;;;27.70;17.35;;;;;;;;;;5032934;28;20063;-60
2022/03/02 10:43:06;;;;;;;29.23;16.20;;;;;;;;;;5051144;28;20036;-60
2022/03/02 10:45:40;;;;;;;29.17;16.67;;;;;;;;;;5034275;28;20116;-60
2022/03/02 10:48:13;;;;;;;31.33;17.52;;;;;;;;;;5049953;28;20048;-60
2022/03/02 10:50:41;;;;;;;27.55;16.73;;;;;;;;;;5047601;28;20132;-60
2022/03/02 10:53:15;;;;;;;33.97;17.60;;;;;;;;;;5045188;28;20052;-60
2022/03/02 10:55:42;;;;;;;33.05;18.80;;;;;;;;;;5051656;28;20041;-60
2022/03/02 10:58:12;;;;;;;27.60;17.30;;;;;;;;;;5058073;28;20040;-60
2022/03/02 11:00:39;;;;;;;30.02;17.35;;;;;;;;;;5050616;28;20499;-60
2022/03/02 11:03:07;;;;;;;30.20;18.65;;;;;;;;;;5052729;28;20043;-60
2022/03/02 11:05:34;;;;;;;31.35;17.58;;;;;;;;;;5071712;22;20037;-60
2022/03/02 11:08:00;;;;;;;29.60;16.58;;;;;;;;;;5069479;28;20068;-60
2022/03/02 11:10:37;;;;;;;29.58;16.10;;;;;;;;;;5068745;28;20085;-60
2022/03/02 11:13:13;;;;;;;26.35;14.60;;;;;;;;;;5063364;28;20072;-59
2022/03/02 11:15:53;;;;;;;30.27;17.73;;;;;;;;;;5064858;28;20047;-60
2022/03/02 11:18:20;;;;;;;29.45;16.88;;;;;;;;;;5067490;28;20068;-60
2022/03/02 11:21:00;;;;;;;28.10;16.85;;;;;;;;;;5058448;28;20068;-60
2022/03/02 11:23:26;;;;;;;27.63;16.00;;;;;;;;;;5064439;28;20052;-60
2022/03/02 11:25:56;;;;;;;28.92;16.80;;;;;;;;;;5069530;28;20559;-60
2022/03/02 11:28:23;;;;;;;29.23;16.13;;;;;;;;;;5058524;28;20763;-60
2022/03/02 11:30:51;;;;;;;28.15;16.30;;;;;;;;;;5052193;28;20078;-59
2022/03/02 11:33:21;;;;;;;26.73;16.50;;;;;;;;;;5050527;28;20557;-59
2022/03/02 11:35:47;;;;;;;29.70;16.55;;;;;;;;;;5051014;28;20072;-59
2022/03/02 11:38:18;;;;;;;27.88;15.95;;;;;;;;;;5056878;28;20068;-59
2022/03/02 11:40:45;;;;;;;29.10;16.20;;;;;;;;;;5044021;28;20041;-59
2022/03/02 11:43:15;;;;;;;26.08;15.68;;;;;;;;;;5051387;28;20036;-59
2022/03/02 11:45:41;;;;;;;30.23;16.13;;;;;;;;;;5058097;28;20029;-59
2022/03/02 11:48:15;;;;;;;29.08;15.25;;;;;;;;;;5053922;28;20132;-59
2022/03/02 11:51:04;;;;;;;28.63;15.32;;;;;;;;;;5065636;28;20087;-59
2022/03/02 11:53:34;;;;;;;27.05;14.82;;;;;;;;;;5074718;28;20083;-59
2022/03/02 11:56:01;;;;;;;25.17;14.82;;;;;;;;;;5054796;28;20075;-59
2022/03/02 11:58:27;;;;;;;26.63;15.88;;;;;;;;;;5060714;28;20032;-60
2022/03/02 12:00:58;;;;;;;26.05;16.15;;;;;;;;;;5065784;28;20037;-59
2022/03/02 12:03:24;;;;;;;28.70;15.57;;;;;;;;;;5061402;28;20065;-59
2022/03/02 12:06:04;;;;;;;27.25;15.18;;;;;;;;;;5052748;28;20079;-59
2022/03/02 12:08:32;;;;;;;27.35;15.93;;;;;;;;;;5049065;28;20044;-59
2022/03/02 12:11:02;;;;;;;29.73;16.65;;;;;;;;;;5054639;28;20506;-60
2022/03/02 12:13:28;;;;;;;25.58;14.85;;;;;;;;;;5052338;28;20059;-60
2022/03/02 12:15:55;;;;;;;28.70;15.73;;;;;;;;;;5053110;28;20069;-59
2022/03/02 12:18:22;;;;;;;23.55;15.32;;;;;;;;;;5051758;28;20037;-59
2022/03/02 12:20:52;;;;;;;26.58;15.27;;;;;;;;;;5054086;28;20037;-59
2022/03/02 12:23:22;;;;;;;26.53;14.67;;;;;;;;;;5053021;28;20044;-60
2022/03/02 12:25:48;;;;;;;25.80;14.48;;;;;;;;;;5053436;28;20302;-60
2022/03/02 12:28:15;;;;;;;26.30;14.52;;;;;;;;;;5053107;28;20045;-59
2022/03/02 12:30:42;;;;;;;25.92;14.50;;;;;;;;;;5051863;28;20041;-60
2022/03/02 12:33:08;;;;;;;25.08;13.95;;;;;;;;;;5030555;28;20036;-60
2022/03/02 12:35:35;;;;;;;25.15;15.02;;;;;;;;;;5053106;28;20041;-60
2022/03/02 12:38:03;;;;;;;27.02;14.82;;;;;;;;;;5052468;28;20037;-61
2022/03/02 12:40:31;;;;;;;28.42;15.77;;;;;;;;;;5056167;28;20136;-60
2022/03/02 12:42:58;;;;;;;28.20;15.20;;;;;;;;;;5052674;28;20033;-60
2022/03/02 12:45:24;;;;;;;24.02;14.10;;;;;;;;;;5057233;28;20033;-60
2022/03/02 12:47:51;;;;;;;24.67;15.45;;;;;;;;;;5054485;28;20317;-60
2022/03/02 12:50:17;;;;;;;30.10;16.13;;;;;;;;;;5054446;28;20486;-60
2022/03/02 12:52:43;;;;;;;27.23;15.27;;;;;;;;;;5052790;28;20513;-61
2022/03/02 12:55:10;;;;;;;25.38;15.23;;;;;;;;;;5051678;28;20039;-60
2022/03/02 12:57:37;;;;;;;26.48;14.52;;;;;;;;;;5046292;28;20041;-61
2022/03/02 13:00:09;;;;;;;26.00;14.75;;;;;;;;;;5052645;28;20072;-60
2022/03/02 13:02:36;;;;;;;26.35;15.02;;;;;;;;;;5056680;28;20129;-60
2022/03/02 13:05:05;;;;;;;21.38;14.02;;;;;;;;;;5054738;28;20449;-60
2022/03/02 13:07:37;;;;;;;25.77;14.57;;;;;;;;;;5062539;28;20576;-60
2022/03/02 13:10:29;;;;;;;25.20;15.23;;;;;;;;;;5053791;28;20075;-61
2022/03/02 13:12:59;;;;;;;26.65;15.27;;;;;;;;;;5048967;28;20049;-60
2022/03/02 13:15:31;;;;;;;28.00;14.25;;;;;;;;;;5059293;28;20036;-60
2022/03/02 13:18:09;;;;;;;22.67;14.32;;;;;;;;;;5067583;28;20041;-60
2022/03/02 13:20:40;;;;;;;22.73;14.18;;;;;;;;;;5048431;28;20045;-60
2022/03/02 13:23:13;;;;;;;22.55;13.98;;;;;;;;;;5050888;28;20045;-60
2022/03/02 13:25:40;;;;;;;22.25;14.30;;;;;;;;;;5052382;28;20037;-60
2022/03/02 13:28:09;;;;;;;23.88;13.25;;;;;;;;;;5051344;28;20049;-60
2022/03/02 13:30:35;;;;;;;25.05;14.30;;;;;;;;;;5053531;28;20053;-60
2022/03/02 13:33:03;;;;;;;22.63;13.90;;;;;;;;;;5052309;28;20037;-60
2022/03/02 13:35:30;;;;;;;23.65;12.88;;;;;;;;;;5051193;28;20040;-60
2022/03/02 13:37:58;;;;;;;21.55;13.57;;;;;;;;;;5052698;28;20044;-60
2022/03/02 13:40:33;;;;;;;22.85;12.88;;;;;;;;;;5055407;28;20121;-60
2022/03/02 13:43:11;;;;;;;21.30;13.40;;;;;;;;;;5052089;28;20049;-60
2022/03/02 13:45:44;;;;;;;22.38;13.48;;;;;;;;;;5052403;28;20044;-60
2022/03/02 13:48:16;;;;;;;21.55;12.95;;;;;;;;;;5049541;28;20041;-60
2022/03/02 13:51:01;;;;;;;24.77;12.98;;;;;;;;;;5047871;28;20402;-59
2022/03/02 13:53:39;;;;;;;21.98;13.35;;;;;;;;;;5050763;28;20041;-60
2022/03/02 13:56:06;;;;;;;21.25;13.45;;;;;;;;;;5050538;28;20041;-59
2022/03/02 13:58:34;;;;;;;21.25;13.82;;;;;;;;;;5049898;28;20029;-59
2022/03/02 14:01:15;;;;;;;22.02;13.48;;;;;;;;;;5048977;28;20135;-60
2022/03/02 14:03:45;;;;;;;24.58;14.13;;;;;;;;;;5050574;28;20033;-60
2022/03/02 14:06:12;;;;;;;21.67;13.98;;;;;;;;;;5053165;28;20040;-59
2022/03/02 14:08:42;;;;;;;21.98;13.77;;;;;;;;;;5051235;28;20445;-60
2022/03/02 14:11:09;;;;;;;23.02;14.57;;;;;;;;;;5054553;28;20045;-59
2022/03/02 14:13:35;;;;;;;21.63;11.82;;;;;;;;;;5049710;28;20044;-59
2022/03/02 14:16:01;;;;;;;20.95;12.43;;;;;;;;;;5051368;28;20055;-59
2022/03/02 14:18:27;;;;;;;19.10;12.57;;;;;;;;;;5043774;28;20051;-59
2022/03/02 14:20:53;;;;;;;20.33;12.55;;;;;;;;;;5073528;28;20044;-59
2022/03/02 14:23:19;;;;;;;20.75;12.40;;;;;;;;;;5051102;28;20072;-60